createdAt,value
2018-07-21T00:02:04.590Z,19.11
2018-07-21T00:04:31.616Z,19.08
2018-07-21T00:06:58.638Z,19.07
2018-07-21T00:09:26.112Z,19.03
2018-07-21T00:11:53.128Z,18.98
2018-07-21T00:14:20.125Z,18.96
2018-07-21T00:16:47.104Z,18.92
2018-07-21T00:19:14.082Z,18.91
2018-07-21T00:21:41.256Z,18.89
2018-07-21T00:24:08.949Z,18.83
2018-07-21T00:26:49.218Z,18.80
2018-07-21T00:29:17.108Z,18.79
2018-07-21T00:31:44.146Z,18.78
2018-07-21T00:34:11.133Z,18.76
2018-07-21T00:36:38.669Z,18.74
2018-07-21T00:39:08.809Z,18.72
2018-07-21T00:41:35.817Z,18.69
2018-07-21T00:44:02.849Z,18.65
2018-07-21T00:46:29.937Z,18.63
2018-07-21T00:48:56.932Z,18.60
2018-07-21T00:51:23.941Z,18.58
2018-07-21T00:53:51.333Z,18.55
2018-07-21T00:56:18.304Z,18.55
2018-07-21T00:58:45.310Z,18.53
2018-07-21T01:01:12.292Z,18.50
2018-07-21T01:03:39.322Z,18.48
2018-07-21T01:06:06.321Z,18.47
2018-07-21T01:08:33.397Z,18.44
2018-07-21T01:11:00.401Z,18.43
2018-07-21T01:13:27.381Z,18.41
2018-07-21T01:15:54.398Z,18.33
2018-07-21T01:18:21.402Z,18.39
2018-07-21T01:20:48.484Z,18.37
2018-07-21T01:23:15.494Z,18.35
2018-07-21T01:25:42.529Z,18.33
2018-07-21T01:28:09.619Z,18.33
2018-07-21T01:30:36.602Z,18.31
2018-07-21T01:33:03.632Z,18.30
2018-07-21T01:35:30.744Z,18.30
2018-07-21T01:37:57.750Z,18.28
2018-07-21T01:40:24.747Z,18.25
2018-07-21T01:42:52.077Z,18.23
2018-07-21T01:45:19.069Z,18.21
2018-07-21T01:47:46.050Z,18.20
2018-07-21T01:50:13.049Z,18.18
2018-07-21T01:52:40.042Z,18.15
2018-07-21T01:55:07.122Z,18.13
2018-07-21T01:57:34.149Z,18.14
2018-07-21T02:00:01.121Z,18.15
2018-07-21T02:02:28.170Z,18.18
2018-07-21T02:04:55.161Z,18.22
2018-07-21T02:07:22.153Z,18.26
2018-07-21T02:09:49.150Z,18.29
2018-07-21T02:12:16.245Z,18.29
2018-07-21T02:14:43.252Z,18.29
2018-07-21T02:17:10.625Z,18.28
2018-07-21T02:19:37.710Z,18.27
2018-07-21T02:22:04.745Z,18.24
2018-07-21T02:24:31.981Z,18.20
2018-07-21T02:26:58.959Z,18.15
2018-07-21T02:29:25.949Z,18.10
2018-07-21T02:31:52.917Z,18.06
2018-07-21T02:34:20.009Z,18.05
2018-07-21T02:36:47.017Z,17.98
2018-07-21T02:39:14.069Z,17.97
2018-07-21T02:41:41.285Z,17.95
2018-07-21T02:44:08.312Z,17.91
2018-07-21T02:46:35.497Z,17.88
2018-07-21T02:49:02.505Z,17.85
2018-07-21T02:51:29.585Z,17.81
2018-07-21T02:53:56.680Z,17.77
2018-07-21T02:56:23.661Z,17.75
2018-07-21T02:58:50.821Z,17.74
2018-07-21T03:01:17.858Z,17.73
2018-07-21T03:03:45.474Z,17.72
2018-07-21T03:06:12.482Z,17.71
2018-07-21T03:08:39.497Z,17.72
2018-07-21T03:11:06.558Z,17.72
2018-07-21T03:13:33.674Z,17.71
2018-07-21T03:16:00.667Z,17.70
2018-07-21T03:18:27.701Z,17.69
2018-07-21T03:20:54.665Z,17.68
2018-07-21T03:23:21.658Z,17.65
2018-07-21T03:25:48.600Z,17.61
2018-07-21T03:28:15.552Z,17.59
2018-07-21T03:30:42.650Z,17.58
2018-07-21T03:33:09.562Z,17.58
2018-07-21T03:35:36.545Z,17.59
2018-07-21T03:38:03.860Z,17.61
2018-07-21T03:40:30.905Z,17.61
2018-07-21T03:42:57.820Z,17.63
2018-07-21T03:45:24.812Z,17.65
2018-07-21T03:47:51.768Z,17.67
2018-07-21T03:50:18.737Z,17.68
2018-07-21T03:52:45.918Z,17.68
2018-07-21T03:55:13.085Z,17.68
2018-07-21T03:57:40.013Z,17.67
2018-07-21T04:00:07.079Z,17.67
2018-07-21T04:02:34.061Z,17.66
2018-07-21T04:05:01.050Z,17.62
2018-07-21T04:07:28.096Z,17.62
2018-07-21T04:09:55.089Z,17.60
2018-07-21T04:12:22.064Z,17.59
2018-07-21T04:14:49.138Z,17.59
2018-07-21T04:17:21.482Z,17.58
2018-07-21T04:19:48.484Z,17.58
2018-07-21T04:22:15.512Z,17.60
2018-07-21T04:24:42.549Z,17.64
2018-07-21T04:27:09.534Z,17.67
2018-07-21T04:29:36.508Z,17.70
2018-07-21T04:32:03.617Z,17.73
2018-07-21T04:34:30.605Z,17.78
2018-07-21T04:36:57.658Z,17.83
2018-07-21T04:39:24.617Z,17.87
2018-07-21T04:41:51.572Z,17.95
2018-07-21T04:44:18.545Z,18.07
2018-07-21T04:46:45.716Z,18.16
2018-07-21T04:49:12.681Z,18.24
2018-07-21T04:51:39.654Z,18.30
2018-07-21T04:54:06.637Z,18.41
2018-07-21T04:56:33.672Z,18.52
2018-07-21T04:59:00.685Z,18.62
2018-07-21T05:01:27.666Z,18.72
2018-07-21T05:03:54.626Z,18.78
2018-07-21T05:06:21.665Z,18.87
2018-07-21T05:08:48.701Z,18.97
2018-07-21T05:11:15.704Z,19.06
2018-07-21T05:13:42.689Z,19.12
2018-07-21T05:16:09.792Z,19.22
2018-07-21T05:18:36.841Z,19.32
2018-07-21T05:21:03.829Z,19.37
2018-07-21T05:23:30.873Z,19.42
2018-07-21T05:25:57.896Z,19.47
2018-07-21T05:28:24.862Z,19.52
2018-07-21T05:30:51.933Z,19.57
2018-07-21T05:33:18.889Z,19.61
2018-07-21T05:35:45.886Z,19.68
2018-07-21T05:38:12.869Z,19.72
2018-07-21T05:40:39.880Z,19.79
2018-07-21T05:43:06.993Z,19.82
2018-07-21T05:45:33.989Z,19.89
2018-07-21T05:48:00.957Z,19.97
2018-07-21T05:50:28.037Z,20.06
2018-07-21T05:52:55.101Z,20.10
2018-07-21T05:55:22.189Z,20.15
2018-07-21T05:57:49.193Z,20.19
2018-07-21T06:00:16.204Z,20.22
2018-07-21T06:02:43.365Z,20.26
2018-07-21T06:05:10.339Z,20.31
2018-07-21T06:07:37.324Z,20.39
2018-07-21T06:10:04.366Z,20.44
2018-07-21T06:12:31.497Z,20.46
2018-07-21T06:14:58.539Z,20.50
2018-07-21T06:17:26.121Z,20.53
2018-07-21T06:19:53.081Z,20.56
2018-07-21T06:22:20.189Z,20.57
2018-07-21T06:24:47.328Z,20.59
2018-07-21T06:27:14.327Z,20.61
2018-07-21T06:29:41.915Z,20.70
2018-07-21T06:32:09.145Z,20.69
2018-07-21T06:34:36.706Z,20.74
2018-07-21T06:37:03.817Z,20.80
2018-07-21T06:39:30.768Z,20.84
2018-07-21T06:41:57.757Z,20.89
2018-07-21T06:44:24.724Z,20.98
2018-07-21T06:46:52.549Z,21.03
2018-07-21T06:49:19.533Z,21.05
2018-07-21T06:51:46.601Z,21.05
2018-07-21T06:54:13.576Z,20.99
2018-07-21T06:56:40.673Z,21.02
2018-07-21T06:59:07.674Z,21.09
2018-07-21T07:01:34.629Z,21.13
2018-07-21T07:04:01.864Z,21.19
2018-07-21T07:06:28.832Z,21.28
2018-07-21T07:08:55.802Z,21.34
2018-07-21T07:11:22.854Z,21.39
2018-07-21T07:13:49.849Z,21.44
2018-07-21T07:16:17.351Z,21.53
2018-07-21T07:18:45.153Z,21.65
2018-07-21T07:21:12.141Z,21.69
2018-07-21T07:23:39.141Z,21.76
2018-07-21T07:26:06.099Z,21.87
2018-07-21T07:28:33.075Z,21.94
2018-07-21T07:31:00.061Z,21.96
2018-07-21T07:33:27.045Z,21.97
2018-07-21T07:35:54.005Z,22.02
2018-07-21T07:38:21.013Z,22.08
2018-07-21T07:40:47.965Z,22.13
2018-07-21T07:43:14.979Z,22.15
2018-07-21T07:45:41.960Z,22.25
2018-07-21T07:48:08.965Z,22.37
2018-07-21T07:50:35.950Z,22.54
2018-07-21T07:53:03.024Z,22.69
2018-07-21T07:55:31.079Z,22.77
2018-07-21T07:57:58.357Z,22.89
2018-07-21T08:00:25.333Z,23.00
2018-07-21T08:02:52.438Z,23.12
2018-07-21T08:05:19.425Z,23.18
2018-07-21T08:07:46.546Z,23.21
2018-07-21T08:10:14.092Z,23.21
2018-07-21T08:12:41.064Z,23.19
2018-07-21T08:15:08.132Z,23.19
2018-07-21T08:17:35.245Z,23.11
2018-07-21T08:20:02.253Z,23.19
2018-07-21T08:22:29.220Z,23.20
2018-07-21T08:24:56.165Z,23.26
2018-07-21T08:27:23.168Z,23.29
2018-07-21T08:29:50.188Z,23.31
2018-07-21T08:32:17.268Z,23.37
2018-07-21T08:34:44.361Z,23.45
2018-07-21T08:37:11.293Z,23.59
2018-07-21T08:39:38.273Z,23.73
2018-07-21T08:42:05.221Z,23.75
2018-07-21T08:44:32.277Z,23.84
2018-07-21T08:46:59.282Z,23.88
2018-07-21T08:49:26.340Z,23.85
2018-07-21T08:51:53.320Z,23.82
2018-07-21T08:54:20.421Z,23.92
2018-07-21T08:56:47.369Z,23.95
2018-07-21T08:59:14.507Z,23.97
2018-07-21T09:01:41.476Z,24.01
2018-07-21T09:04:08.481Z,24.05
2018-07-21T09:06:35.457Z,24.03
2018-07-21T09:09:02.601Z,24.05
2018-07-21T09:11:29.577Z,24.03
2018-07-21T09:13:56.548Z,23.99
2018-07-21T09:16:23.521Z,23.96
2018-07-21T09:18:50.536Z,23.97
2018-07-21T09:21:17.485Z,23.96
2018-07-21T09:23:44.513Z,24.09
2018-07-21T09:26:11.581Z,24.29
2018-07-21T09:28:38.664Z,24.58
2018-07-21T09:31:05.697Z,24.86
2018-07-21T09:33:32.691Z,25.11
2018-07-21T09:35:59.657Z,25.24
2018-07-21T09:38:26.653Z,25.31
2018-07-21T09:40:53.612Z,25.33
2018-07-21T09:43:20.591Z,25.22
2018-07-21T09:45:47.567Z,25.25
2018-07-21T09:48:14.556Z,25.28
2018-07-21T09:50:41.562Z,25.35
2018-07-21T09:53:09.262Z,25.37
2018-07-21T09:55:36.254Z,25.43
2018-07-21T09:58:03.216Z,25.56
2018-07-21T10:00:35.934Z,25.78
2018-07-21T10:03:02.909Z,26.06
2018-07-21T10:05:29.916Z,26.22
2018-07-21T10:07:56.890Z,26.31
2018-07-21T10:10:23.896Z,26.38
2018-07-21T10:12:51.555Z,26.56
2018-07-21T10:15:18.533Z,26.75
2018-07-21T10:17:45.542Z,26.75
2018-07-21T10:20:12.645Z,26.85
2018-07-21T10:22:39.664Z,26.92
2018-07-21T10:25:12.325Z,26.97
2018-07-21T10:27:45.105Z,26.99
2018-07-21T10:30:12.181Z,27.14
2018-07-21T10:32:39.153Z,27.16
2018-07-21T10:35:06.141Z,27.10
2018-07-21T10:37:33.120Z,27.12
2018-07-21T10:40:00.160Z,27.16
2018-07-21T10:42:27.138Z,27.10
2018-07-21T10:44:54.153Z,27.00
2018-07-21T10:47:21.164Z,26.90
2018-07-21T10:49:48.577Z,26.70
2018-07-21T10:52:15.529Z,26.70
2018-07-21T10:54:42.550Z,26.71
2018-07-21T10:57:09.593Z,26.80
2018-07-21T10:59:36.580Z,26.96
2018-07-21T11:02:03.590Z,27.09
2018-07-21T11:04:30.665Z,27.09
2018-07-21T11:06:57.717Z,27.15
2018-07-21T11:09:24.690Z,27.27
2018-07-21T11:11:51.642Z,27.35
2018-07-21T11:14:18.625Z,27.41
2018-07-21T11:16:45.633Z,27.39
2018-07-21T11:19:12.664Z,27.31
2018-07-21T11:21:39.701Z,27.24
2018-07-21T11:24:06.666Z,27.17
2018-07-21T11:26:33.664Z,27.11
2018-07-21T11:29:00.636Z,27.00
2018-07-21T11:31:27.611Z,26.83
2018-07-21T11:33:54.585Z,26.80
2018-07-21T11:36:21.606Z,26.77
2018-07-21T11:38:48.556Z,26.83
2018-07-21T11:41:15.634Z,26.96
2018-07-21T11:43:42.593Z,27.08
2018-07-21T11:46:09.584Z,27.22
2018-07-21T11:48:36.578Z,27.28
2018-07-21T11:51:03.773Z,27.34
2018-07-21T11:53:30.777Z,27.42
2018-07-21T11:55:57.833Z,27.47
2018-07-21T11:58:24.813Z,27.57
2018-07-21T12:00:51.825Z,27.57
2018-07-21T12:03:18.780Z,27.57
2018-07-21T12:05:45.979Z,27.60
2018-07-21T12:08:13.177Z,27.57
2018-07-21T12:10:40.212Z,27.55
2018-07-21T12:13:07.238Z,27.59
2018-07-21T12:15:34.215Z,27.65
2018-07-21T12:18:01.177Z,27.61
2018-07-21T12:20:28.161Z,27.62
2018-07-21T12:22:55.152Z,27.73
2018-07-21T12:25:22.137Z,27.86
2018-07-21T12:27:49.176Z,28.06
2018-07-21T12:30:16.157Z,28.21
2018-07-21T12:32:43.109Z,28.35
2018-07-21T12:35:10.129Z,28.37
2018-07-21T12:37:37.201Z,28.46
2018-07-21T12:40:04.376Z,28.53
2018-07-21T12:42:31.385Z,28.74
2018-07-21T12:44:58.390Z,29.01
2018-07-21T12:47:25.329Z,29.30
2018-07-21T12:49:52.284Z,29.25
2018-07-21T12:52:19.289Z,29.10
2018-07-21T12:54:46.981Z,28.97
2018-07-21T12:57:14.013Z,28.69
2018-07-21T12:59:40.968Z,28.56
2018-07-21T13:02:07.945Z,28.43
2018-07-21T13:04:35.085Z,28.32
2018-07-21T13:07:02.069Z,28.32
2018-07-21T13:09:29.041Z,28.43
2018-07-21T13:11:56.065Z,28.58
2018-07-21T13:14:23.065Z,28.76
2018-07-21T13:16:50.069Z,28.86
2018-07-21T13:19:17.721Z,28.97
2018-07-21T13:21:44.777Z,29.04
2018-07-21T13:24:11.777Z,28.97
2018-07-21T13:26:38.773Z,28.88
2018-07-21T13:29:05.753Z,28.78
2018-07-21T13:31:32.782Z,28.66
2018-07-21T13:33:59.789Z,28.51
2018-07-21T13:36:26.764Z,28.45
2018-07-21T13:38:53.729Z,28.54
2018-07-21T13:41:20.758Z,28.52
2018-07-21T13:43:47.720Z,28.47
2018-07-21T13:46:14.718Z,28.54
2018-07-21T13:48:41.737Z,28.60
2018-07-21T13:51:08.754Z,28.55
2018-07-21T13:53:35.716Z,28.57
2018-07-21T13:56:02.761Z,28.64
2018-07-21T13:58:29.777Z,28.74
2018-07-21T14:00:56.757Z,28.86
2018-07-21T14:03:23.749Z,28.90
2018-07-21T14:05:50.729Z,28.89
2018-07-21T14:08:17.722Z,28.78
2018-07-21T14:10:44.725Z,28.74
2018-07-21T14:13:11.756Z,28.68
2018-07-21T14:15:38.796Z,28.59
2018-07-21T14:18:06.036Z,28.41
2018-07-21T14:20:33.006Z,28.22
2018-07-21T14:23:00.014Z,28.12
2018-07-21T14:25:27.006Z,28.01
2018-07-21T14:27:54.824Z,27.91
2018-07-21T14:30:21.826Z,27.85
2018-07-21T14:32:48.800Z,27.83
2018-07-21T14:35:15.884Z,27.83
2018-07-21T14:37:42.975Z,27.83
2018-07-21T14:40:09.950Z,27.82
2018-07-21T14:42:36.962Z,27.83
2018-07-21T14:45:04.506Z,27.81
2018-07-21T14:47:31.665Z,27.84
2018-07-21T14:49:58.594Z,27.85
2018-07-21T14:52:25.628Z,27.81
2018-07-21T14:54:52.710Z,27.77
2018-07-21T14:57:19.625Z,27.71
2018-07-21T14:59:46.599Z,27.68
2018-07-21T15:02:13.768Z,27.66
2018-07-21T15:04:41.069Z,27.68
2018-07-21T15:07:08.477Z,27.71
2018-07-21T15:09:35.543Z,27.61
2018-07-21T15:12:02.521Z,27.61
2018-07-21T15:14:29.513Z,27.56
2018-07-21T15:16:56.477Z,27.55
2018-07-21T15:19:23.988Z,27.46
2018-07-21T15:21:51.017Z,27.41
2018-07-21T15:24:17.997Z,27.38
2018-07-21T15:26:44.976Z,27.32
2018-07-21T15:29:12.009Z,27.26
2018-07-21T15:31:39.048Z,27.20
2018-07-21T15:34:06.092Z,27.14
2018-07-21T15:36:33.113Z,27.10
2018-07-21T15:39:00.128Z,27.09
2018-07-21T15:41:27.126Z,27.07
2018-07-21T15:43:55.092Z,27.06
2018-07-21T15:46:22.256Z,27.03
2018-07-21T15:48:49.282Z,27.04
2018-07-21T15:51:16.244Z,27.07
2018-07-21T15:53:43.296Z,27.10
2018-07-21T15:56:10.321Z,27.08
2018-07-21T15:58:37.433Z,27.05
2018-07-21T16:01:04.501Z,27.03
2018-07-21T16:03:31.511Z,26.98
2018-07-21T16:05:58.546Z,26.91
2018-07-21T16:08:25.510Z,26.87
2018-07-21T16:10:52.510Z,26.81
2018-07-21T16:13:19.529Z,26.75
2018-07-21T16:15:46.517Z,26.76
2018-07-21T16:18:13.516Z,26.75
2018-07-21T16:20:40.708Z,26.74
2018-07-21T16:23:07.885Z,26.75
2018-07-21T16:25:35.672Z,26.75
2018-07-21T16:28:02.690Z,26.74
2018-07-21T16:30:29.637Z,26.74
2018-07-21T16:32:56.809Z,26.71
2018-07-21T16:35:23.803Z,26.70
2018-07-21T16:37:50.781Z,26.67
2018-07-21T16:40:17.779Z,26.59
2018-07-21T16:42:44.765Z,26.58
2018-07-21T16:45:11.734Z,26.53
2018-07-21T16:47:38.726Z,26.49
2018-07-21T16:50:05.892Z,26.47
2018-07-21T16:52:33.069Z,26.43
2018-07-21T16:55:00.041Z,26.39
2018-07-21T16:57:27.139Z,26.36
2018-07-21T16:59:54.245Z,26.32
2018-07-21T17:02:21.156Z,26.29
2018-07-21T17:04:48.161Z,26.23
2018-07-21T17:07:15.119Z,26.20
2018-07-21T17:09:42.073Z,26.16
2018-07-21T17:12:09.029Z,26.11
2018-07-21T17:14:36.165Z,26.12
2018-07-21T17:17:03.153Z,26.10
2018-07-21T17:19:30.129Z,26.10
2018-07-21T17:21:57.133Z,26.06
2018-07-21T17:24:24.141Z,26.06
2018-07-21T17:26:51.093Z,26.08
2018-07-21T17:29:18.084Z,26.12
2018-07-21T17:31:45.057Z,26.16
2018-07-21T17:34:12.029Z,26.25
2018-07-21T17:36:39.100Z,26.34
2018-07-21T17:39:07.479Z,26.40
2018-07-21T17:41:34.461Z,26.50
2018-07-21T17:44:01.492Z,26.65
2018-07-21T17:46:28.567Z,26.79
2018-07-21T17:48:55.540Z,26.81
2018-07-21T17:51:22.617Z,26.87
2018-07-21T17:53:49.609Z,26.90
2018-07-21T17:56:16.630Z,26.96
2018-07-21T17:58:43.597Z,27.03
2018-07-21T18:01:10.590Z,27.08
2018-07-21T18:03:37.556Z,27.16
2018-07-21T18:06:04.827Z,27.23
2018-07-21T18:08:31.799Z,27.30
2018-07-21T18:10:58.776Z,27.36
2018-07-21T18:13:26.577Z,27.37
2018-07-21T18:15:54.538Z,27.33
2018-07-21T18:18:21.612Z,27.25
2018-07-21T18:20:48.580Z,27.22
2018-07-21T18:23:15.585Z,27.15
2018-07-21T18:25:42.792Z,27.10
2018-07-21T18:28:10.056Z,27.04
2018-07-21T18:30:37.025Z,26.95
2018-07-21T18:33:04.260Z,26.90
2018-07-21T18:35:31.221Z,26.87
2018-07-21T18:37:58.256Z,26.82
2018-07-21T18:40:25.407Z,26.77
2018-07-21T18:42:52.376Z,26.65
2018-07-21T18:45:19.426Z,26.55
2018-07-21T18:47:46.389Z,26.48
2018-07-21T18:50:13.417Z,26.43
2018-07-21T18:52:40.393Z,26.37
2018-07-21T18:55:07.344Z,26.31
2018-07-21T18:57:34.365Z,26.27
2018-07-21T19:00:01.571Z,26.19
2018-07-21T19:02:28.905Z,26.13
2018-07-21T19:04:55.938Z,26.05
2018-07-21T19:07:22.914Z,26.00
2018-07-21T19:09:49.860Z,25.95
2018-07-21T19:12:22.785Z,25.88
2018-07-21T19:14:50.058Z,25.82
2018-07-21T19:17:17.020Z,25.78
2018-07-21T19:19:49.690Z,25.72
2018-07-21T19:22:16.649Z,25.67
2018-07-21T19:24:43.981Z,25.60
2018-07-21T19:27:16.705Z,25.56
2018-07-21T19:29:43.672Z,25.51
2018-07-21T19:32:16.293Z,25.46
2018-07-21T19:34:43.256Z,25.42
2018-07-21T19:37:16.058Z,25.37
2018-07-21T19:39:43.354Z,25.31
2018-07-21T19:42:10.318Z,25.28
2018-07-21T19:44:37.364Z,25.25
2018-07-21T19:47:05.782Z,25.24
2018-07-21T19:49:32.788Z,25.19
2018-07-21T19:51:59.753Z,25.15
2018-07-21T19:54:26.738Z,25.11
2018-07-21T19:56:53.932Z,25.06
2018-07-21T19:59:20.876Z,25.01
2018-07-21T20:01:47.860Z,24.95
2018-07-21T20:04:15.033Z,24.92
2018-07-21T20:06:42.537Z,24.90
2018-07-21T20:09:10.041Z,24.86
2018-07-21T20:11:37.238Z,24.84
2018-07-21T20:14:04.355Z,24.81
2018-07-21T20:16:31.345Z,24.77
2018-07-21T20:18:58.465Z,24.73
2018-07-21T20:21:25.597Z,24.70
2018-07-21T20:23:52.633Z,24.65
2018-07-21T20:26:19.616Z,24.62
2018-07-21T20:28:46.573Z,24.60
2018-07-21T20:31:13.557Z,24.58
2018-07-21T20:33:40.509Z,24.56
2018-07-21T20:36:07.457Z,24.53
2018-07-21T20:38:35.179Z,24.52
2018-07-21T20:41:02.166Z,24.48
2018-07-21T20:43:29.232Z,24.44
2018-07-21T20:45:56.149Z,24.40
2018-07-21T20:48:23.186Z,24.37
2018-07-21T20:50:50.272Z,24.32
2018-07-21T20:53:17.482Z,24.30
2018-07-21T20:55:44.469Z,24.26
2018-07-21T20:58:11.664Z,24.23
2018-07-21T21:00:38.702Z,24.20
2018-07-21T21:03:05.694Z,24.18
2018-07-21T21:05:32.648Z,24.15
2018-07-21T21:07:59.613Z,24.12
2018-07-21T21:10:26.625Z,24.08
2018-07-21T21:12:53.833Z,24.05
2018-07-21T21:15:20.928Z,24.01
2018-07-21T21:17:47.917Z,23.96
2018-07-21T21:20:14.888Z,23.94
2018-07-21T21:22:41.896Z,23.91
2018-07-21T21:25:08.985Z,23.89
2018-07-21T21:27:35.981Z,23.86
2018-07-21T21:30:02.989Z,23.83
2018-07-21T21:32:30.097Z,23.82
2018-07-21T21:34:57.081Z,23.81
2018-07-21T21:37:24.109Z,23.80
2018-07-21T21:39:51.173Z,23.78
2018-07-21T21:42:18.321Z,23.77
2018-07-21T21:44:45.418Z,23.76
2018-07-21T21:47:12.444Z,23.73
2018-07-21T21:49:39.477Z,23.73
2018-07-21T21:52:06.505Z,23.70
2018-07-21T21:54:33.599Z,23.70
2018-07-21T21:57:00.580Z,23.69
2018-07-21T21:59:27.673Z,23.67
2018-07-21T22:01:54.665Z,23.65
2018-07-21T22:04:21.639Z,23.63
2018-07-21T22:06:48.665Z,23.63
2018-07-21T22:09:16.311Z,23.61
2018-07-21T22:11:43.297Z,23.60
2018-07-21T22:14:10.300Z,23.58
2018-07-21T22:16:37.300Z,23.59
2018-07-21T22:19:04.619Z,23.57
2018-07-21T22:21:31.725Z,23.57
2018-07-21T22:23:59.362Z,23.55
2018-07-21T22:26:26.405Z,23.53
2018-07-21T22:28:53.397Z,23.52
2018-07-21T22:31:20.658Z,23.49
2018-07-21T22:33:47.645Z,23.47
2018-07-21T22:36:14.641Z,23.45
2018-07-21T22:38:41.673Z,23.42
2018-07-21T22:41:08.873Z,23.40
2018-07-21T22:43:35.929Z,23.38
2018-07-21T22:46:03.623Z,23.37
2018-07-21T22:48:31.329Z,23.35
2018-07-21T22:50:58.353Z,23.32
2018-07-21T22:53:25.352Z,23.33
2018-07-21T22:55:52.345Z,23.29
2018-07-21T22:58:19.449Z,23.28
2018-07-21T23:00:46.458Z,23.27
2018-07-21T23:03:13.496Z,23.25
2018-07-21T23:05:41.419Z,23.25
2018-07-21T23:08:08.406Z,23.23
2018-07-21T23:10:35.462Z,23.21
2018-07-21T23:13:02.534Z,23.19
2018-07-21T23:15:29.477Z,23.15
2018-07-21T23:17:56.569Z,23.15
2018-07-21T23:20:24.433Z,23.13
2018-07-21T23:22:51.388Z,23.11
2018-07-21T23:25:18.356Z,23.07
2018-07-21T23:27:45.349Z,23.05
2018-07-21T23:30:12.333Z,23.02
2018-07-21T23:32:39.318Z,23.00
2018-07-21T23:35:06.336Z,22.95
2018-07-21T23:37:33.376Z,22.91
2018-07-21T23:40:00.371Z,22.87
2018-07-21T23:42:27.369Z,22.82
2018-07-21T23:44:54.373Z,22.78
2018-07-21T23:47:21.345Z,22.72
2018-07-21T23:49:48.330Z,22.68
2018-07-21T23:52:15.331Z,22.64
2018-07-21T23:54:42.323Z,22.59
2018-07-21T23:57:09.289Z,22.55
2018-07-21T23:59:36.300Z,22.49
